createdAt,value
2019-04-01T00:02:04.688Z,10.50
2019-04-01T00:04:37.020Z,9.25
2019-04-01T00:07:12.174Z,12.88
2019-04-01T00:09:41.160Z,7.37
2019-04-01T00:12:10.152Z,7.45
2019-04-01T00:14:39.163Z,9.30
2019-04-01T00:17:08.183Z,8.63
2019-04-01T00:19:41.730Z,10.72
2019-04-01T00:22:11.290Z,12.63
2019-04-01T00:24:40.326Z,7.95
2019-04-01T00:27:13.865Z,9.05
2019-04-01T00:29:42.829Z,6.85
2019-04-01T00:32:13.447Z,10.23
2019-04-01T00:34:44.975Z,9.65
2019-04-01T00:37:15.955Z,7.53
2019-04-01T00:39:44.611Z,7.47
2019-04-01T00:42:18.120Z,7.67
2019-04-01T00:44:47.080Z,8.30
2019-04-01T00:47:17.467Z,9.88
2019-04-01T00:49:46.558Z,9.00
2019-04-01T00:52:17.869Z,10.95
2019-04-01T00:54:48.429Z,9.98
2019-04-01T00:57:21.954Z,6.22
2019-04-01T00:59:50.971Z,9.55
2019-04-01T01:02:19.970Z,8.15
2019-04-01T01:04:49.785Z,5.62
2019-04-01T01:07:18.745Z,8.70
2019-04-01T01:09:51.028Z,13.10
2019-04-01T01:12:21.201Z,6.35
2019-04-01T01:14:53.432Z,8.08
2019-04-01T01:17:25.459Z,12.45
2019-04-01T01:19:56.123Z,7.87
2019-04-01T01:22:26.283Z,6.80
2019-04-01T01:24:59.846Z,13.68
2019-04-01T01:27:28.837Z,9.18
2019-04-01T01:29:57.837Z,7.55
2019-04-01T01:32:26.954Z,7.85
2019-04-01T01:34:56.500Z,14.87
2019-04-01T01:37:26.700Z,10.43
2019-04-01T01:39:56.318Z,8.43
2019-04-01T01:42:26.832Z,7.00
2019-04-01T01:44:58.612Z,6.70
2019-04-01T01:47:30.326Z,8.18
2019-04-01T01:49:59.294Z,9.35
2019-04-01T01:52:28.241Z,8.50
2019-04-01T01:55:00.606Z,7.28
2019-04-01T01:57:29.602Z,11.80
2019-04-01T02:00:00.247Z,4.95
2019-04-01T02:02:31.436Z,8.98
2019-04-01T02:05:00.428Z,7.87
2019-04-01T02:07:29.420Z,5.75
2019-04-01T02:10:01.199Z,5.20
2019-04-01T02:12:30.163Z,11.45
2019-04-01T02:14:59.122Z,7.03
2019-04-01T02:17:28.678Z,8.78
2019-04-01T02:19:58.902Z,9.50
2019-04-01T02:22:30.499Z,11.30
2019-04-01T02:25:04.042Z,9.50
2019-04-01T02:27:34.573Z,11.00
2019-04-01T02:30:07.623Z,10.72
2019-04-01T02:32:40.318Z,9.18
2019-04-01T02:35:09.539Z,8.38
2019-04-01T02:37:42.102Z,5.93
2019-04-01T02:40:12.769Z,9.70
2019-04-01T02:42:44.557Z,7.97
2019-04-01T02:45:16.838Z,5.92
2019-04-01T02:47:45.870Z,8.88
2019-04-01T02:50:19.022Z,11.35
2019-04-01T02:52:49.673Z,8.30
2019-04-01T02:55:18.636Z,7.45
2019-04-01T02:57:47.973Z,6.85
2019-04-01T03:00:17.916Z,10.25
2019-04-01T03:02:46.885Z,4.85
2019-04-01T03:05:15.943Z,8.95
2019-04-01T03:07:44.928Z,12.03
2019-04-01T03:10:19.827Z,9.63
2019-04-01T03:12:48.859Z,12.18
2019-04-01T03:15:17.866Z,10.00
2019-04-01T03:17:46.958Z,10.70
2019-04-01T03:20:15.942Z,8.33
2019-04-01T03:22:46.685Z,5.75
2019-04-01T03:25:15.645Z,5.92
2019-04-01T03:27:45.945Z,7.50
2019-04-01T03:30:18.741Z,5.95
2019-04-01T03:32:47.744Z,10.00
2019-04-01T03:35:18.430Z,6.45
2019-04-01T03:37:47.652Z,6.35
2019-04-01T03:40:16.592Z,8.83
2019-04-01T03:42:47.996Z,7.95
2019-04-01T03:45:18.745Z,5.67
2019-04-01T03:47:47.692Z,10.05
2019-04-01T03:50:16.661Z,8.10
2019-04-01T03:52:45.626Z,10.72
2019-04-01T03:55:14.845Z,9.20
2019-04-01T03:57:45.139Z,8.53
2019-04-01T04:00:14.350Z,6.72
2019-04-01T04:02:43.277Z,7.57
2019-04-01T04:05:12.690Z,6.30
2019-04-01T04:07:43.780Z,6.78
2019-04-01T04:10:16.152Z,6.67
2019-04-01T04:12:46.450Z,9.18
2019-04-01T04:15:18.642Z,3.27
2019-04-01T04:17:50.762Z,7.85
2019-04-01T04:20:22.087Z,7.17
2019-04-01T04:22:51.092Z,10.68
2019-04-01T04:25:20.061Z,10.95
2019-04-01T04:27:51.065Z,6.95
2019-04-01T04:30:20.401Z,8.38
2019-04-01T04:32:52.594Z,8.08
2019-04-01T04:35:23.245Z,8.70
2019-04-01T04:37:52.445Z,7.40
2019-04-01T04:40:36.006Z,8.90
2019-04-01T04:43:05.894Z,6.60
2019-04-01T04:45:37.502Z,5.95
2019-04-01T04:48:06.469Z,7.65
2019-04-01T04:50:35.460Z,10.63
2019-04-01T04:53:06.247Z,11.88
2019-04-01T04:55:38.393Z,7.60
2019-04-01T04:58:10.360Z,3.20
2019-04-01T05:00:40.940Z,6.25
2019-04-01T05:03:09.899Z,9.13
2019-04-01T05:05:38.846Z,8.78
2019-04-01T05:08:08.498Z,11.45
2019-04-01T05:10:39.734Z,7.97
2019-04-01T05:13:08.870Z,8.25
2019-04-01T05:15:40.658Z,4.30
2019-04-01T05:18:13.744Z,12.28
2019-04-01T05:20:42.848Z,7.30
2019-04-01T05:23:12.328Z,6.20
2019-04-01T05:25:45.277Z,10.48
2019-04-01T05:30:43.902Z,10.53
2019-04-01T05:33:16.466Z,11.33
2019-04-01T05:35:49.291Z,7.15
2019-04-01T05:38:21.102Z,9.73
2019-04-01T05:40:50.150Z,7.37
2019-04-01T05:43:22.026Z,6.22
2019-04-01T05:45:52.239Z,7.85
2019-04-01T05:48:24.009Z,6.33
2019-04-01T05:50:53.530Z,9.63
2019-04-01T05:53:30.475Z,8.58
2019-04-01T05:55:59.589Z,6.95
2019-04-01T05:58:29.547Z,9.43
2019-04-01T06:01:02.935Z,8.43
2019-04-01T06:03:31.914Z,6.35
2019-04-01T06:06:00.874Z,6.08
2019-04-01T06:08:29.831Z,5.47
2019-04-01T06:11:01.872Z,7.62
2019-04-01T06:13:33.327Z,6.65
2019-04-01T06:16:02.368Z,11.15
2019-04-01T06:18:34.359Z,9.40
2019-04-01T06:21:03.369Z,7.58
2019-04-01T06:23:34.843Z,7.87
2019-04-01T06:26:03.900Z,8.73
2019-04-01T06:28:32.934Z,8.93
2019-04-01T06:31:01.957Z,10.43
2019-04-01T06:33:31.141Z,9.05
2019-04-01T06:36:01.706Z,7.57
2019-04-01T06:38:30.891Z,9.30
2019-04-01T06:41:08.837Z,9.83
2019-04-01T06:43:41.839Z,8.63
2019-04-01T06:46:11.942Z,8.53
2019-04-01T06:51:12.349Z,6.28
2019-04-01T06:53:42.993Z,5.28
2019-04-01T06:56:13.745Z,9.20
2019-04-01T06:58:45.804Z,11.00
2019-04-01T07:01:17.443Z,7.47
2019-04-01T07:03:46.470Z,7.58
2019-04-01T07:06:15.427Z,5.80
2019-04-01T07:08:47.523Z,11.60
2019-04-01T07:11:16.985Z,10.20
2019-04-01T07:13:46.000Z,10.50
2019-04-01T07:16:19.638Z,8.83
2019-04-01T07:18:45.926Z,12.23
2019-04-01T07:21:14.940Z,6.80
2019-04-01T07:23:46.702Z,8.50
2019-04-01T07:26:15.028Z,7.47
2019-04-01T07:28:44.062Z,9.05
2019-04-01T07:31:13.060Z,7.45
2019-04-01T07:36:13.908Z,9.47
2019-04-01T07:38:44.489Z,9.25
2019-04-01T07:41:18.410Z,8.18
2019-04-01T07:43:50.342Z,8.03
2019-04-01T07:46:19.312Z,5.15
2019-04-01T07:48:50.575Z,6.75
2019-04-01T07:51:19.604Z,9.20
2019-04-01T07:53:48.639Z,8.25
2019-04-01T07:56:18.360Z,8.78
2019-04-01T07:58:49.027Z,7.65
2019-04-01T08:01:19.274Z,10.08
2019-04-01T08:03:51.566Z,6.47
2019-04-01T08:06:20.599Z,7.40
2019-04-01T08:08:56.718Z,6.72
2019-04-01T08:11:25.681Z,8.98
2019-04-01T08:13:54.702Z,10.48
2019-04-01T08:16:23.749Z,12.85
2019-04-01T08:21:24.629Z,7.93
2019-04-01T08:23:53.838Z,8.98
2019-04-01T08:26:25.553Z,6.47
2019-04-01T08:28:58.159Z,9.53
2019-04-01T08:31:31.619Z,10.88
2019-04-01T08:34:00.595Z,8.90
2019-04-01T08:39:06.644Z,7.90
2019-04-01T08:41:39.711Z,7.53
2019-04-01T08:44:08.667Z,8.28
2019-04-01T08:46:39.163Z,11.60
2019-04-01T08:49:08.711Z,6.20
2019-04-01T08:51:37.737Z,8.13
2019-04-01T08:54:06.751Z,10.68
2019-04-01T08:56:46.326Z,8.38
2019-04-01T08:59:15.919Z,10.18
2019-04-01T09:01:45.513Z,15.98
2019-04-01T09:04:18.405Z,10.48
2019-04-01T09:06:48.530Z,10.88
2019-04-01T09:11:45.762Z,8.48
2019-04-01T09:14:14.805Z,8.37
2019-04-01T09:16:47.635Z,9.60
2019-04-01T09:19:20.915Z,9.48
2019-04-01T09:21:49.879Z,9.63
2019-04-01T09:24:18.834Z,7.35
2019-04-01T09:26:47.838Z,10.18
2019-04-01T09:29:16.860Z,8.65
2019-04-01T09:31:45.894Z,10.60
2019-04-01T09:34:15.005Z,11.23
2019-04-01T09:36:43.976Z,11.10
2019-04-01T09:39:15.937Z,11.85
2019-04-01T09:41:45.010Z,11.03
2019-04-01T09:44:16.720Z,9.10
2019-04-01T09:46:48.836Z,9.63
2019-04-01T09:49:21.128Z,10.28
2019-04-01T09:51:51.667Z,9.38
2019-04-01T09:54:20.804Z,8.75
2019-04-01T09:56:52.792Z,8.20
2019-04-01T09:59:21.759Z,10.95
2019-04-01T10:01:56.798Z,11.73
2019-04-01T10:04:28.452Z,12.25
2019-04-01T10:06:57.441Z,10.70
2019-04-01T10:09:28.035Z,12.95
2019-04-01T10:11:57.086Z,10.05
2019-04-01T10:14:26.043Z,9.50
2019-04-01T10:16:56.153Z,10.65
2019-04-01T10:21:53.665Z,16.62
2019-04-01T10:24:22.923Z,11.28
2019-04-01T10:26:54.737Z,11.10
2019-04-01T10:29:27.647Z,10.08
2019-04-01T10:31:57.805Z,11.53
2019-04-01T10:34:26.787Z,13.27
2019-04-01T10:36:55.744Z,13.10
2019-04-01T10:39:24.733Z,10.05
2019-04-01T10:41:53.756Z,10.88
2019-04-01T10:44:22.802Z,11.15
2019-04-01T10:46:55.187Z,11.03
2019-04-01T10:49:23.516Z,11.75
2019-04-01T10:54:26.635Z,11.68
2019-04-01T10:56:55.818Z,11.68
2019-04-01T10:59:26.468Z,14.68
2019-04-01T11:01:58.802Z,10.75
2019-04-01T11:04:31.073Z,8.55
2019-04-01T11:07:01.555Z,11.65
2019-04-01T11:09:38.518Z,14.07
2019-04-01T11:12:02.881Z,9.85
2019-04-01T11:14:31.909Z,12.82
2019-04-01T11:17:04.088Z,13.03
2019-04-01T11:19:33.507Z,12.68
2019-04-01T11:22:04.389Z,12.47
2019-04-01T11:24:33.353Z,9.50
2019-04-01T11:27:04.211Z,9.78
2019-04-01T11:29:33.161Z,12.82
2019-04-01T11:32:04.505Z,11.95
2019-04-01T11:34:34.761Z,11.45
2019-04-01T11:37:04.290Z,12.33
2019-04-01T11:39:34.427Z,11.15
2019-04-01T11:42:08.677Z,10.95
2019-04-01T11:44:37.747Z,11.10
2019-04-01T11:47:06.867Z,13.55
2019-04-01T11:49:36.536Z,11.28
2019-04-01T11:52:05.600Z,14.75
2019-04-01T11:54:34.522Z,14.03
2019-04-01T11:57:04.092Z,19.80
2019-04-01T11:59:33.121Z,14.35
2019-04-01T12:02:02.166Z,10.00
2019-04-01T12:04:32.675Z,14.05
2019-04-01T12:07:02.117Z,11.48
2019-04-01T12:09:33.295Z,12.60
2019-04-01T12:12:03.863Z,11.48
2019-04-01T12:14:32.836Z,13.48
2019-04-01T12:17:01.906Z,14.03
2019-04-01T12:19:32.140Z,13.87
2019-04-01T12:22:04.119Z,12.73
2019-04-01T12:24:36.752Z,11.25
2019-04-01T12:27:07.403Z,13.80
2019-04-01T12:29:38.109Z,13.28
2019-04-01T12:32:08.282Z,11.60
2019-04-01T12:34:44.189Z,12.13
2019-04-01T12:37:13.198Z,11.48
2019-04-01T12:39:43.788Z,12.75
2019-04-01T12:42:12.897Z,14.13
2019-04-01T12:44:49.138Z,13.32
2019-04-01T12:47:19.878Z,13.72
2019-04-01T12:49:55.035Z,12.68
2019-04-01T12:52:24.072Z,11.20
2019-04-01T12:54:52.999Z,15.03
2019-04-01T12:57:22.035Z,12.33
2019-04-01T12:59:56.266Z,13.20
2019-04-01T13:02:25.305Z,14.85
2019-04-01T13:04:54.225Z,9.60
2019-04-01T13:09:52.285Z,13.48
2019-04-01T13:12:21.261Z,13.25
2019-04-01T13:14:55.300Z,12.23
2019-04-01T13:17:22.534Z,12.73
2019-04-01T13:19:51.499Z,11.40
2019-04-01T13:22:20.441Z,11.60
2019-04-01T13:24:55.470Z,15.18
2019-04-01T13:27:24.554Z,11.97
2019-04-01T13:29:59.438Z,11.00
2019-04-01T13:32:30.358Z,13.40
2019-04-01T13:35:01.571Z,11.00
2019-04-01T13:37:32.355Z,10.55
2019-04-01T13:40:03.684Z,14.07
2019-04-01T13:42:32.790Z,10.85
2019-04-01T13:45:03.278Z,12.73
2019-04-01T13:47:34.421Z,12.50
2019-04-01T13:50:04.363Z,13.10
2019-04-01T13:52:33.399Z,12.40
2019-04-01T13:55:03.752Z,13.30
2019-04-01T13:57:34.547Z,14.65
2019-04-01T14:00:04.692Z,10.78
2019-04-01T14:02:33.655Z,12.05
2019-04-01T14:05:06.427Z,12.10
2019-04-01T14:07:37.240Z,12.90
2019-04-01T14:10:10.159Z,10.90
2019-04-01T14:12:40.766Z,11.65
2019-04-01T14:15:11.386Z,12.07
2019-04-01T14:17:46.541Z,12.15
2019-04-01T14:20:15.521Z,13.00
2019-04-01T14:22:45.483Z,12.13
2019-04-01T14:25:14.561Z,10.70
2019-04-01T14:27:43.922Z,11.35
2019-04-01T14:30:13.545Z,14.53
2019-04-01T14:32:42.592Z,13.95
2019-04-01T14:35:11.618Z,15.98
2019-04-01T14:37:40.640Z,15.08
2019-04-01T14:40:10.032Z,12.83
2019-04-01T14:42:40.740Z,14.38
2019-04-01T14:45:09.897Z,12.73
2019-04-01T14:47:56.047Z,10.78
2019-04-01T14:50:10.094Z,10.48
2019-04-01T14:52:39.062Z,14.90
2019-04-01T14:55:09.543Z,11.93
2019-04-01T14:57:38.514Z,11.50
2019-04-01T15:00:09.064Z,13.10
2019-04-01T15:02:39.660Z,11.25
2019-04-01T15:05:08.895Z,13.80
2019-04-01T15:07:39.039Z,15.93
2019-04-01T15:10:08.000Z,12.33
2019-04-01T15:12:39.912Z,13.77
2019-04-01T15:15:15.494Z,14.73
2019-04-01T15:17:44.454Z,13.15
2019-04-01T15:20:13.953Z,13.87
2019-04-01T15:22:43.578Z,14.85
2019-04-01T15:25:12.524Z,12.93
2019-04-01T15:27:43.003Z,10.37
2019-04-01T15:30:14.320Z,12.88
2019-04-01T15:32:43.681Z,13.83
2019-04-01T15:35:13.453Z,11.53
2019-04-01T15:37:42.482Z,12.43
2019-04-01T15:40:11.727Z,15.13
2019-04-01T15:42:43.222Z,13.78
2019-04-01T15:45:12.713Z,12.15
2019-04-01T15:47:41.760Z,11.73
2019-04-01T15:50:10.850Z,10.00
2019-04-01T15:52:39.853Z,12.78
2019-04-01T15:55:09.074Z,14.20
2019-04-01T15:57:39.475Z,12.10
2019-04-01T16:00:15.186Z,15.43
2019-04-01T16:02:47.277Z,13.65
2019-04-01T16:05:20.533Z,12.45
2019-04-01T16:07:49.673Z,12.47
2019-04-01T16:10:18.651Z,15.72
2019-04-01T16:12:48.879Z,16.15
2019-04-01T16:15:19.767Z,17.27
2019-04-01T16:17:48.821Z,12.93
2019-04-01T16:20:17.791Z,12.90
2019-04-01T16:22:48.075Z,14.83
2019-04-01T16:25:20.643Z,12.18
2019-04-01T16:27:53.923Z,16.00
2019-04-01T16:30:22.929Z,14.13
2019-04-01T16:32:56.135Z,18.13
2019-04-01T16:35:25.115Z,12.00
2019-04-01T16:37:54.079Z,15.87
2019-04-01T16:40:24.092Z,16.63
2019-04-01T16:42:55.658Z,12.68
2019-04-01T16:45:23.765Z,14.78
2019-04-01T16:47:52.803Z,14.05
2019-04-01T16:50:21.819Z,14.65
2019-04-01T16:52:50.810Z,18.57
2019-04-01T16:55:19.895Z,15.47
2019-04-01T16:57:51.551Z,14.28
2019-04-01T17:00:22.989Z,14.70
2019-04-01T17:02:55.918Z,15.88
2019-04-01T17:05:32.686Z,14.93
2019-04-01T17:08:05.640Z,17.42
2019-04-01T17:10:34.671Z,13.15
2019-04-01T17:13:07.469Z,18.27
2019-04-01T17:15:36.486Z,16.75
2019-04-01T17:18:05.720Z,13.17
2019-04-01T17:20:37.498Z,18.57
2019-04-01T17:23:11.194Z,22.25
2019-04-01T17:25:42.457Z,16.35
2019-04-01T17:28:12.210Z,65.72
2019-04-01T17:30:44.508Z,57.53
2019-04-01T17:33:13.547Z,21.77
2019-04-01T17:35:42.470Z,14.90
2019-04-01T17:38:13.827Z,22.37
2019-04-01T17:40:43.216Z,19.25
2019-04-01T17:43:13.804Z,15.38
2019-04-01T17:45:42.762Z,23.38
2019-04-01T17:51:43.488Z,15.43
2019-04-01T17:54:16.022Z,17.62
2019-04-01T17:56:45.151Z,16.80
2019-04-01T17:59:16.975Z,25.27
2019-04-01T18:01:46.158Z,21.82
2019-04-01T18:04:15.207Z,58.55
2019-04-01T18:06:44.142Z,71.57
2019-04-01T18:09:13.883Z,1023.15
2019-04-01T18:11:45.675Z,697.85
2019-04-01T18:14:14.693Z,906.87
2019-04-01T18:16:43.743Z,220.93
2019-04-01T18:19:12.709Z,347.70
2019-04-01T18:21:41.849Z,363.57
2019-04-01T18:24:10.883Z,444.50
2019-04-01T18:26:39.879Z,434.33
2019-04-01T18:29:10.064Z,123.62
2019-04-01T18:31:39.327Z,305.12
2019-04-01T18:34:10.633Z,36.50
2019-04-01T18:36:39.602Z,21.55
2019-04-01T18:39:10.109Z,20.57
2019-04-01T18:41:39.261Z,24.37
2019-04-01T18:44:08.229Z,19.13
2019-04-01T18:46:37.179Z,17.23
2019-04-01T18:49:08.142Z,21.35
2019-04-01T18:51:36.827Z,16.67
2019-04-01T18:54:06.049Z,19.67
2019-04-01T18:56:40.939Z,18.37
2019-04-01T18:59:09.951Z,18.55
2019-04-01T19:08:24.105Z,16.42
2019-04-01T19:11:02.096Z,19.35
2019-04-01T19:13:30.100Z,19.30
2019-04-01T19:16:00.623Z,17.95
2019-04-01T19:18:31.354Z,16.45
2019-04-01T19:21:04.562Z,19.67
2019-04-01T19:23:33.262Z,17.70
2019-04-01T19:26:02.457Z,20.02
2019-04-01T19:28:34.571Z,20.13
2019-04-01T19:31:06.396Z,17.37
2019-04-01T19:33:35.412Z,19.15
2019-04-01T19:36:04.446Z,19.85
2019-04-01T19:38:35.993Z,17.80
2019-04-01T19:41:04.968Z,19.55
2019-04-01T19:43:35.479Z,19.10
2019-04-01T19:46:04.634Z,18.45
2019-04-01T19:48:38.133Z,21.43
2019-04-01T19:51:07.168Z,21.97
2019-04-01T19:53:43.456Z,19.35
2019-04-01T19:56:25.726Z,21.85
2019-04-01T19:58:57.494Z,19.00
2019-04-01T20:01:29.344Z,17.57
2019-04-01T20:03:59.089Z,17.98
2019-04-01T20:06:28.060Z,16.07
2019-04-01T20:08:57.112Z,17.70
2019-04-01T20:11:26.056Z,19.77
2019-04-01T20:13:58.531Z,20.12
2019-04-01T20:16:27.534Z,19.60
2019-04-01T20:18:56.524Z,20.17
2019-04-01T20:23:59.193Z,16.90
2019-04-01T20:26:28.224Z,20.60
2019-04-01T20:29:00.112Z,22.10
2019-04-01T20:31:29.127Z,19.12
2019-04-01T20:33:58.422Z,19.48
2019-04-01T20:36:28.869Z,15.10
2019-04-01T20:38:58.213Z,14.98
2019-04-01T20:41:27.243Z,20.88
2019-04-01T20:43:58.426Z,20.15
2019-04-01T20:46:27.713Z,19.87
2019-04-01T20:48:56.693Z,20.05
2019-04-01T20:51:26.117Z,20.92
2019-04-01T20:53:55.511Z,19.48
2019-04-01T20:56:28.539Z,19.60
2019-04-01T20:58:59.895Z,21.23
2019-04-01T21:01:32.075Z,21.97
2019-04-01T21:04:09.331Z,20.15
2019-04-01T21:06:38.329Z,21.30
2019-04-01T21:09:07.895Z,21.12
2019-04-01T21:11:37.914Z,17.80
2019-04-01T21:14:14.615Z,21.95
2019-04-01T21:16:48.934Z,23.80
2019-04-01T21:19:17.883Z,22.85
2019-04-01T21:21:48.377Z,18.92
2019-04-01T21:24:18.160Z,22.90
2019-04-01T21:26:47.260Z,19.45
2019-04-01T21:29:16.276Z,21.30
2019-04-01T21:31:45.328Z,20.62
2019-04-01T21:34:14.343Z,18.37
2019-04-01T21:36:48.607Z,21.65
2019-04-01T21:39:17.572Z,23.65
2019-04-01T21:41:50.218Z,21.97
2019-04-01T21:44:18.635Z,21.85
2019-04-01T21:46:51.406Z,19.60
2019-04-01T21:49:20.363Z,19.82
2019-04-01T21:51:52.307Z,23.75
2019-04-01T21:54:27.204Z,20.85
2019-04-01T21:56:57.425Z,23.27
2019-04-01T21:59:30.672Z,20.77
2019-04-01T22:01:58.826Z,25.23
2019-04-01T22:04:27.792Z,22.62
2019-04-01T22:07:01.453Z,23.12
2019-04-01T22:09:30.385Z,22.77
2019-04-01T22:12:00.622Z,21.45
2019-04-01T22:14:32.580Z,19.02
2019-04-01T22:22:57.187Z,19.73
2019-04-01T22:25:27.159Z,23.18
2019-04-01T22:27:56.116Z,20.32
2019-04-01T22:32:57.464Z,25.65
2019-04-01T22:35:38.143Z,24.20
2019-04-01T22:38:07.913Z,23.42
2019-04-01T22:40:37.204Z,27.58
2019-04-01T22:43:06.320Z,23.15
2019-04-01T22:45:39.266Z,21.97
2019-04-01T22:48:13.216Z,19.27
2019-04-01T22:50:43.463Z,25.30
2019-04-01T22:53:12.700Z,21.15
2019-04-01T22:55:47.196Z,21.40
2019-04-01T22:58:18.134Z,24.72
2019-04-01T23:00:47.690Z,20.92
2019-04-01T23:03:21.497Z,20.77
2019-04-01T23:05:51.427Z,21.45
2019-04-01T23:08:20.423Z,23.25
2019-04-01T23:10:49.429Z,25.48
2019-04-01T23:13:20.145Z,21.33
2019-04-01T23:15:49.065Z,24.02
2019-04-01T23:18:18.151Z,23.60
2019-04-01T23:20:47.103Z,24.67
2019-04-01T23:23:16.300Z,21.60
2019-04-01T23:25:47.688Z,20.50
2019-04-01T23:28:16.721Z,24.50
2019-04-01T23:30:46.731Z,22.85
2019-04-01T23:35:45.325Z,22.70
2019-04-01T23:38:15.089Z,22.20
2019-04-01T23:40:50.228Z,28.52
2019-04-01T23:43:19.249Z,23.50
2019-04-01T23:45:51.207Z,26.33
2019-04-01T23:48:26.119Z,29.98
2019-04-01T23:50:56.815Z,23.45
2019-04-01T23:53:27.331Z,26.35
2019-04-01T23:56:00.307Z,21.05
2019-04-01T23:58:34.933Z,24.60
